Time;durP1;ratioP1;P1;durP2;ratioP2;P2;SDS_P1;SDS_P2;PMS_P1;PMS_P2;Temp;Humidity;BMP_temperature;BMP_pressure;BME280_temperature;BME280_humidity;BME280_pressure;Samples;Min_cycle;Max_cycle;Signal;HPM_P1;HPM_P2
2022/04/26 03:36:10;;;;;;;2.55;2.35;;;;;;;;;;2098744;28;20128;-44
2022/04/26 03:37:12;;;;;;;3.87;1.90;;;;;;;;;;2098816;28;20132;-44
2022/04/26 03:38:14;;;;;;;4.80;2.00;;;;;;;;;;2098723;28;20285;-44
2022/04/26 03:39:15;;;;;;;3.65;1.95;;;;;;;;;;2098530;28;20545;-44
2022/04/26 03:40:17;;;;;;;3.45;2.25;;;;;;;;;;2098822;28;20053;-44
2022/04/26 03:41:17;;;;;;;2.45;1.90;;;;;;;;;;2098808;28;20075;-44
2022/04/26 03:42:19;;;;;;;3.77;2.17;;;;;;;;;;2098562;28;20455;-45
2022/04/26 03:43:20;;;;;;;6.00;2.22;;;;;;;;;;2098686;28;20124;-44
2022/04/26 03:44:21;;;;;;;2.70;1.90;;;;;;;;;;2098554;28;20501;-45
2022/04/26 03:45:22;;;;;;;3.08;2.10;;;;;;;;;;2098430;28;20050;-45
2022/04/26 03:46:24;;;;;;;3.47;2.40;;;;;;;;;;2098590;28;20057;-44
2022/04/26 03:47:25;;;;;;;2.85;1.92;;;;;;;;;;2098662;28;20052;-44
2022/04/26 03:48:26;;;;;;;3.40;2.20;;;;;;;;;;2098633;28;20577;-44
2022/04/26 03:49:27;;;;;;;5.10;2.17;;;;;;;;;;2098563;28;20480;-45
2022/04/26 03:50:28;;;;;;;3.78;2.60;;;;;;;;;;2098548;28;20746;-44
2022/04/26 03:51:30;;;;;;;4.30;2.63;;;;;;;;;;2098635;28;20151;-44
2022/04/26 03:52:31;;;;;;;6.13;3.00;;;;;;;;;;2101075;28;23850;-44
2022/04/26 03:53:33;;;;;;;5.50;2.58;;;;;;;;;;2106975;28;20047;-45
2022/04/26 03:54:34;;;;;;;4.93;2.53;;;;;;;;;;2106870;28;20245;-44
2022/04/26 03:55:35;;;;;;;5.40;2.60;;;;;;;;;;2106931;28;20126;-44
2022/04/26 03:56:37;;;;;;;4.63;2.80;;;;;;;;;;2106961;28;20051;-45
2022/04/26 03:57:38;;;;;;;3.97;2.42;;;;;;;;;;2107003;28;20281;-44
2022/04/26 03:58:39;;;;;;;4.78;2.88;;;;;;;;;;2106806;28;20060;-45
2022/04/26 03:59:40;;;;;;;5.07;2.53;;;;;;;;;;2106919;28;20574;-44
2022/04/26 04:00:42;;;;;;;3.83;2.27;;;;;;;;;;2106981;28;20113;-44
2022/04/26 04:01:43;;;;;;;;;;;;;;;;;;2107321;28;20047;-44
2022/04/26 04:02:44;;;;;;;4.35;2.13;;;;;;;;;;2107019;28;19927;-44
2022/04/26 04:03:45;;;;;;;5.60;3.00;;;;;;;;;;2106806;28;20040;-44
2022/04/26 04:04:46;;;;;;;5.17;2.43;;;;;;;;;;2106858;28;20094;-43
2022/04/26 04:05:47;;;;;;;3.90;2.63;;;;;;;;;;2106847;28;20040;-44
2022/04/26 04:06:48;;;;;;;3.97;2.73;;;;;;;;;;2106902;28;20052;-44
2022/04/26 04:07:49;;;;;;;3.78;2.67;;;;;;;;;;2107332;28;20119;-44
2022/04/26 04:08:50;;;;;;;3.50;2.17;;;;;;;;;;2106877;28;20075;-45
2022/04/26 04:09:52;;;;;;;5.75;2.35;;;;;;;;;;2106979;28;20123;-44
2022/04/26 04:10:53;;;;;;;5.10;2.53;;;;;;;;;;2107098;28;20127;-44
2022/04/26 04:11:55;;;;;;;4.63;2.90;;;;;;;;;;2106769;28;20496;-45
2022/04/26 04:12:55;;;;;;;6.35;2.55;;;;;;;;;;2107014;28;20067;-44
2022/04/26 04:13:57;;;;;;;5.35;2.97;;;;;;;;;;2106883;28;20052;-45
2022/04/26 04:14:58;;;;;;;3.47;2.58;;;;;;;;;;2106809;28;20048;-45
2022/04/26 04:15:59;;;;;;;5.55;3.33;;;;;;;;;;2106797;28;20394;-45
2022/04/26 04:17:01;;;;;;;5.07;3.70;;;;;;;;;;2106722;28;20429;-44
2022/04/26 04:18:02;;;;;;;5.63;3.88;;;;;;;;;;2106895;28;20062;-44
2022/04/26 04:19:18;;;;;;;4.23;2.97;;;;;;;;;;2100390;28;20048;-44
2022/04/26 04:20:20;;;;;;;5.63;2.58;;;;;;;;;;2098559;28;20281;-45
2022/04/26 04:21:20;;;;;;;4.35;2.88;;;;;;;;;;2098160;28;20127;-44
2022/04/26 04:22:22;;;;;;;4.97;2.90;;;;;;;;;;2098359;28;20044;-44
2022/04/26 04:23:23;;;;;;;2.83;2.10;;;;;;;;;;2098448;28;20123;-44
2022/04/26 04:24:24;;;;;;;4.68;2.85;;;;;;;;;;2098347;28;20485;-44
2022/04/26 04:25:25;;;;;;;4.47;2.90;;;;;;;;;;2098340;28;20580;-44
2022/04/26 04:26:26;;;;;;;4.07;2.70;;;;;;;;;;2098560;28;20048;-44
2022/04/26 04:27:27;;;;;;;5.47;3.25;;;;;;;;;;2098468;28;20051;-44
2022/04/26 04:28:28;;;;;;;3.77;2.90;;;;;;;;;;2098312;28;20401;-44
2022/04/26 04:29:29;;;;;;;4.85;2.83;;;;;;;;;;2098341;28;20206;-44
2022/04/26 04:30:30;;;;;;;4.25;3.13;;;;;;;;;;2098337;28;20120;-44
2022/04/26 04:31:33;;;;;;;5.37;3.43;;;;;;;;;;2098473;28;20485;-44
2022/04/26 04:32:34;;;;;;;6.05;4.10;;;;;;;;;;2098319;28;20044;-44
2022/04/26 04:33:35;;;;;;;5.07;3.92;;;;;;;;;;2098564;28;20124;-69
2022/04/26 04:34:36;;;;;;;6.47;4.05;;;;;;;;;;2098334;28;20493;-68
2022/04/26 04:35:37;;;;;;;6.82;3.80;;;;;;;;;;2098466;28;20127;-68
2022/04/26 04:36:38;;;;;;;6.47;4.23;;;;;;;;;;2098348;28;20075;-67
2022/04/26 04:37:39;;;;;;;5.95;3.83;;;;;;;;;;2098430;28;20044;-68
2022/04/26 04:38:41;;;;;;;6.20;4.67;;;;;;;;;;2098341;28;20048;-67
2022/04/26 04:39:42;;;;;;;7.53;4.60;;;;;;;;;;2098236;28;20274;-68
2022/04/26 04:40:43;;;;;;;7.55;3.55;;;;;;;;;;2098303;28;20048;-67
2022/04/26 04:41:44;;;;;;;5.30;3.53;;;;;;;;;;2098122;28;20094;-68
2022/04/26 04:42:45;;;;;;;7.03;3.70;;;;;;;;;;2098408;28;20461;-68
2022/04/26 04:43:46;;;;;;;5.27;2.67;;;;;;;;;;2098215;28;20044;-66
2022/04/26 04:44:47;;;;;;;6.43;3.25;;;;;;;;;;2098294;28;20127;-66
2022/04/26 04:45:48;;;;;;;4.23;3.07;;;;;;;;;;2098214;28;20045;-66
2022/04/26 04:46:50;;;;;;;5.80;3.42;;;;;;;;;;2098380;28;20040;-66
2022/04/26 04:47:51;;;;;;;4.68;2.70;;;;;;;;;;2098168;28;20568;-66
2022/04/26 04:48:52;;;;;;;3.75;2.75;;;;;;;;;;2098119;28;20139;-66
2022/04/26 04:49:53;;;;;;;6.03;2.80;;;;;;;;;;2098211;28;20551;-66
2022/04/26 04:50:54;;;;;;;3.22;2.55;;;;;;;;;;2098187;28;20048;-66
2022/04/26 04:51:55;;;;;;;3.23;2.33;;;;;;;;;;2098332;28;20055;-66
2022/04/26 04:52:57;;;;;;;6.72;3.30;;;;;;;;;;2098186;28;20376;-66
2022/04/26 04:53:58;;;;;;;4.47;2.95;;;;;;;;;;2098165;28;20155;-65
2022/04/26 04:54:59;;;;;;;3.83;2.67;;;;;;;;;;2098202;28;20110;-67
2022/04/26 04:56:00;;;;;;;5.50;2.90;;;;;;;;;;2098135;28;20197;-66
2022/04/26 04:57:02;;;;;;;5.25;3.00;;;;;;;;;;2098193;28;20174;-67
2022/04/26 04:58:04;;;;;;;5.18;2.75;;;;;;;;;;2098290;28;20049;-65
2022/04/26 04:59:05;;;;;;;4.05;2.50;;;;;;;;;;2098179;28;20128;-65
2022/04/26 05:00:07;;;;;;;4.77;3.07;;;;;;;;;;2098277;28;20048;-66
2022/04/26 05:01:07;;;;;;;2.88;2.03;;;;;;;;;;2098280;28;20052;-65
2022/04/26 05:02:10;;;;;;;5.35;3.05;;;;;;;;;;2098156;28;20280;-65
2022/04/26 05:03:10;;;;;;;;;;;;;;;;;;2098652;28;20124;-67
2022/04/26 05:04:12;;;;;;;7.00;4.40;;;;;;;;;;2097962;28;19982;-66
2022/04/26 05:05:13;;;;;;;6.40;3.88;;;;;;;;;;2098345;28;20051;-66
2022/04/26 05:06:14;;;;;;;8.43;4.67;;;;;;;;;;2097940;28;20086;-65
2022/04/26 05:07:17;;;;;;;6.90;3.33;;;;;;;;;;2098020;28;20424;-64
2022/04/26 05:08:18;;;;;;;5.32;3.50;;;;;;;;;;2089828;28;20186;-64
2022/04/26 05:09:19;;;;;;;5.35;3.92;;;;;;;;;;2089686;28;20056;-65
2022/04/26 05:10:21;;;;;;;6.30;3.33;;;;;;;;;;2089734;28;20566;-65
2022/04/26 05:11:22;;;;;;;4.03;2.60;;;;;;;;;;2090005;28;20361;-44
2022/04/26 05:12:28;;;;;;;4.68;2.95;;;;;;;;;;2089853;28;20049;-44
2022/04/26 05:13:29;;;;;;;4.47;2.90;;;;;;;;;;2089671;28;20049;-44
2022/04/26 05:14:30;;;;;;;3.97;2.75;;;;;;;;;;2090077;28;20379;-44
2022/04/26 05:15:31;;;;;;;3.33;2.50;;;;;;;;;;2089726;28;20056;-44
2022/04/26 05:16:32;;;;;;;4.38;2.55;;;;;;;;;;2089805;28;20123;-44
2022/04/26 05:17:34;;;;;;;4.30;2.50;;;;;;;;;;2089734;28;20118;-44
2022/04/26 05:18:36;;;;;;;3.78;3.10;;;;;;;;;;2091632;28;20314;-45
2022/04/26 05:19:37;;;;;;;3.63;2.55;;;;;;;;;;2098073;28;20076;-44
2022/04/26 05:20:38;;;;;;;5.10;3.33;;;;;;;;;;2097967;28;20048;-45
2022/04/26 05:21:40;;;;;;;6.28;3.22;;;;;;;;;;2097999;28;20045;-45
2022/04/26 05:25:16;;;;;;;3.67;2.30;;;;;;;;;;2080454;28;20046;-68
2022/04/26 05:26:18;;;;;;;3.28;2.47;;;;;;;;;;2093175;28;20139;-46
2022/04/26 05:27:20;;;;;;;5.25;2.35;;;;;;;;;;2098140;28;20080;-45
2022/04/26 05:28:21;;;;;;;3.10;2.50;;;;;;;;;;2098010;28;20072;-45
2022/04/26 05:29:24;;;;;;;5.13;2.75;;;;;;;;;;2098060;28;20067;-64
2022/04/26 05:30:25;;;;;;;4.17;2.77;;;;;;;;;;2097990;28;20049;-64
2022/04/26 05:31:26;;;;;;;4.20;2.42;;;;;;;;;;2097945;28;20071;-66
2022/04/26 05:32:28;;;;;;;3.45;2.17;;;;;;;;;;2097162;28;20543;-65
2022/04/26 05:33:30;;;;;;;2.90;2.35;;;;;;;;;;2097790;28;20052;-65
2022/04/26 05:34:31;;;;;;;5.05;2.45;;;;;;;;;;2098046;28;20258;-65
2022/04/26 05:35:32;;;;;;;3.10;1.97;;;;;;;;;;2097946;28;20082;-64
2022/04/26 05:36:33;;;;;;;2.40;1.85;;;;;;;;;;2097884;28;20131;-64
2022/04/26 05:37:34;;;;;;;4.03;2.35;;;;;;;;;;2097757;28;20089;-63
2022/04/26 05:38:35;;;;;;;4.45;2.42;;;;;;;;;;2097924;28;20248;-63
2022/04/26 05:39:37;;;;;;;3.40;1.98;;;;;;;;;;2097939;28;20068;-65
2022/04/26 05:40:38;;;;;;;4.88;2.22;;;;;;;;;;2097985;28;20040;-64
2022/04/26 05:41:40;;;;;;;2.87;2.20;;;;;;;;;;2098011;28;20049;-64
2022/04/26 05:42:41;;;;;;;3.42;2.05;;;;;;;;;;2097770;28;20120;-64
2022/04/26 05:43:42;;;;;;;2.28;1.80;;;;;;;;;;2097737;28;20490;-64
2022/04/26 05:44:43;;;;;;;4.17;2.20;;;;;;;;;;2097432;28;20047;-64
2022/04/26 05:45:44;;;;;;;2.85;1.90;;;;;;;;;;2097911;28;20096;-64
2022/04/26 05:46:45;;;;;;;4.13;2.10;;;;;;;;;;2097815;28;20513;-64
2022/04/26 05:47:46;;;;;;;4.03;1.92;;;;;;;;;;2097948;28;20070;-63
2022/04/26 05:48:48;;;;;;;3.80;2.07;;;;;;;;;;2097803;28;20482;-62
2022/04/26 05:49:49;;;;;;;6.00;2.13;;;;;;;;;;2097806;28;20313;-62
2022/04/26 05:50:50;;;;;;;3.10;2.17;;;;;;;;;;2097931;28;20049;-63
2022/04/26 05:51:51;;;;;;;2.35;1.50;;;;;;;;;;2097710;28;20636;-63
2022/04/26 05:52:53;;;;;;;2.30;2.00;;;;;;;;;;2098086;28;20083;-45
2022/04/26 05:53:53;;;;;;;3.60;2.40;;;;;;;;;;2097646;28;20143;-45
2022/04/26 05:54:55;;;;;;;2.70;2.03;;;;;;;;;;2097913;28;20061;-44
2022/04/26 05:55:56;;;;;;;2.00;1.30;;;;;;;;;;2097778;28;20295;-44
2022/04/26 05:56:57;;;;;;;3.30;1.50;;;;;;;;;;2097843;28;20056;-44
2022/04/26 05:57:58;;;;;;;4.80;2.05;;;;;;;;;;2097776;28;20132;-44
2022/04/26 05:58:59;;;;;;;3.05;2.20;;;;;;;;;;2097808;28;20052;-44
2022/04/26 06:00:03;;;;;;;5.10;2.00;;;;;;;;;;2097914;28;20505;-63
2022/04/26 06:01:04;;;;;;;3.13;1.40;;;;;;;;;;2097773;28;20130;-63
2022/04/26 06:02:05;;;;;;;2.20;1.60;;;;;;;;;;2097702;28;20463;-63
2022/04/26 06:03:07;;;;;;;2.60;1.65;;;;;;;;;;2097677;28;20478;-63
2022/04/26 06:04:09;;;;;;;2.97;1.88;;;;;;;;;;2097585;28;20127;-63
2022/04/26 06:05:10;;;;;;;2.35;1.70;;;;;;;;;;2097871;28;20056;-63
2022/04/26 06:06:11;;;;;;;3.40;1.77;;;;;;;;;;2097651;28;20516;-64
2022/04/26 06:07:12;;;;;;;5.50;1.80;;;;;;;;;;2097660;28;20174;-63
2022/04/26 06:08:13;;;;;;;2.73;1.60;;;;;;;;;;2097693;28;20098;-63
2022/04/26 06:09:15;;;;;;;2.80;1.95;;;;;;;;;;2097522;28;20585;-64
2022/04/26 06:10:16;;;;;;;2.78;1.88;;;;;;;;;;2097787;28;20101;-65
2022/04/26 06:11:17;;;;;;;4.18;2.20;;;;;;;;;;2097598;28;20140;-65
2022/04/26 06:12:18;;;;;;;2.28;1.63;;;;;;;;;;2097640;28;20412;-64
2022/04/26 06:13:20;;;;;;;2.53;1.70;;;;;;;;;;2097729;28;20139;-65
2022/04/26 06:14:21;;;;;;;2.50;1.73;;;;;;;;;;2097507;28;20044;-64
2022/04/26 06:15:22;;;;;;;2.30;1.42;;;;;;;;;;2097751;28;20048;-64
2022/04/26 06:16:23;;;;;;;2.03;1.50;;;;;;;;;;2097556;28;20139;-64
2022/04/26 06:17:25;;;;;;;1.95;1.60;;;;;;;;;;2097699;28;20141;-63
2022/04/26 06:18:26;;;;;;;2.83;1.70;;;;;;;;;;2097358;28;20209;-63
2022/04/26 06:19:27;;;;;;;2.25;1.85;;;;;;;;;;2097718;28;20131;-64
2022/04/26 06:20:29;;;;;;;4.38;1.77;;;;;;;;;;2097646;28;20522;-63
2022/04/26 06:21:30;;;;;;;2.42;1.30;;;;;;;;;;2097712;28;20058;-63
2022/04/26 06:22:31;;;;;;;1.90;1.50;;;;;;;;;;2097618;28;20051;-63
2022/04/26 06:23:32;;;;;;;2.20;1.60;;;;;;;;;;2097755;28;20123;-44
2022/04/26 06:24:33;;;;;;;2.58;1.92;;;;;;;;;;2097476;28;20147;-44
2022/04/26 06:25:36;;;;;;;4.80;2.87;;;;;;;;;;2097549;28;20056;-44
2022/04/26 06:26:37;;;;;;;2.47;1.60;;;;;;;;;;2097703;28;20052;-44
2022/04/26 06:27:39;;;;;;;1.73;1.40;;;;;;;;;;2097743;28;20087;-44
2022/04/26 06:28:40;;;;;;;2.00;1.40;;;;;;;;;;2097631;28;20124;-44
2022/04/26 06:29:41;;;;;;;1.80;1.20;;;;;;;;;;2097497;28;20366;-44
2022/04/26 06:30:42;;;;;;;3.85;1.60;;;;;;;;;;2097453;28;20360;-45
2022/04/26 06:31:43;;;;;;;4.68;1.55;;;;;;;;;;2097577;28;20055;-44
2022/04/26 06:32:45;;;;;;;1.90;1.23;;;;;;;;;;2097703;28;20044;-44
2022/04/26 06:33:45;;;;;;;1.73;1.30;;;;;;;;;;2097265;28;20569;-44
2022/04/26 06:34:47;;;;;;;2.43;1.60;;;;;;;;;;2097597;28;20052;-45
2022/04/26 06:35:48;;;;;;;2.10;1.23;;;;;;;;;;2097614;28;20177;-44
2022/04/26 06:36:49;;;;;;;2.47;1.60;;;;;;;;;;2097461;28;20040;-45
2022/04/26 06:37:50;;;;;;;3.22;1.40;;;;;;;;;;2097479;28;20523;-45
2022/04/26 06:38:52;;;;;;;1.83;1.37;;;;;;;;;;2097389;28;20048;-45
2022/04/26 06:39:53;;;;;;;1.80;1.50;;;;;;;;;;2097461;28;20044;-44
2022/04/26 06:40:54;;;;;;;2.88;1.38;;;;;;;;;;2097418;28;20143;-45
2022/04/26 06:41:56;;;;;;;1.52;1.13;;;;;;;;;;2105610;28;20169;-45
2022/04/26 06:42:58;;;;;;;1.83;1.42;;;;;;;;;;2105807;28;20138;-45
2022/04/26 06:43:59;;;;;;;3.63;1.40;;;;;;;;;;2105792;28;20135;-44
2022/04/26 06:45:00;;;;;;;1.33;1.05;;;;;;;;;;2105805;28;20139;-45
2022/04/26 06:46:01;;;;;;;2.37;1.30;;;;;;;;;;2105801;28;20044;-45
2022/04/26 06:47:03;;;;;;;1.75;1.10;;;;;;;;;;2106034;28;20810;-45
2022/04/26 06:48:06;;;;;;;1.27;1.15;;;;;;;;;;2105739;28;20044;-45
2022/04/26 06:49:09;;;;;;;3.63;1.20;;;;;;;;;;2105770;28;20083;-45
2022/04/26 06:50:11;;;;;;;4.00;1.30;;;;;;;;;;2105954;28;20055;-45
2022/04/26 06:51:12;;;;;;;2.33;1.23;;;;;;;;;;2106092;28;20142;-63
2022/04/26 06:52:14;;;;;;;1.80;1.23;;;;;;;;;;2105705;28;20522;-63
2022/04/26 06:53:15;;;;;;;1.35;0.93;;;;;;;;;;2105863;28;20047;-63
2022/04/26 06:54:16;;;;;;;1.70;1.00;;;;;;;;;;2105689;28;20348;-63
2022/04/26 06:55:17;;;;;;;2.53;1.47;;;;;;;;;;2105914;28;20077;-63
2022/04/26 06:56:18;;;;;;;2.28;1.55;;;;;;;;;;2105739;28;20543;-63
2022/04/26 06:57:24;;;;;;;2.05;1.35;;;;;;;;;;2105798;28;20478;-63
2022/04/26 06:58:25;;;;;;;1.45;0.90;;;;;;;;;;2105707;28;20541;-63
2022/04/26 06:59:26;;;;;;;1.57;1.10;;;;;;;;;;2105817;28;20048;-63
2022/04/26 07:00:28;;;;;;;2.08;1.20;;;;;;;;;;2105830;28;20104;-64
2022/04/26 07:01:29;;;;;;;2.30;1.08;;;;;;;;;;2105776;28;20071;-64
2022/04/26 07:02:41;;;;;;;1.52;1.02;;;;;;;;;;2106141;28;20086;-64
2022/04/26 07:03:43;;;;;;;1.88;1.08;;;;;;;;;;2105573;28;20047;-64
2022/04/26 07:04:44;;;;;;;2.65;1.38;;;;;;;;;;2105662;28;20040;-64
2022/04/26 07:05:46;;;;;;;1.45;0.85;;;;;;;;;;2105742;28;20068;-64
2022/04/26 07:06:47;;;;;;;1.88;0.90;;;;;;;;;;2105746;28;20368;-64
2022/04/26 07:07:49;;;;;;;1.23;0.93;;;;;;;;;;2105632;28;20533;-64
2022/04/26 07:08:50;;;;;;;1.75;0.88;;;;;;;;;;2105767;28;20043;-63
2022/04/26 07:09:51;;;;;;;2.60;1.58;;;;;;;;;;2105750;28;20188;-63
2022/04/26 07:10:52;;;;;;;3.80;1.13;;;;;;;;;;2105683;28;20203;-63
2022/04/26 07:11:54;;;;;;;1.17;0.98;;;;;;;;;;2105625;28;20093;-63
2022/04/26 07:12:55;;;;;;;1.55;0.90;;;;;;;;;;2105638;28;20465;-63
2022/04/26 07:13:57;;;;;;;1.33;0.80;;;;;;;;;;2105719;28;20438;-65
2022/04/26 07:14:58;;;;;;;1.40;0.82;;;;;;;;;;2105624;28;20375;-63
2022/04/26 07:15:59;;;;;;;1.50;0.98;;;;;;;;;;2105825;28;20127;-63
2022/04/26 07:17:02;;;;;;;1.20;0.90;;;;;;;;;;2105726;28;20075;-63
2022/04/26 07:18:02;;;;;;;2.15;1.05;;;;;;;;;;2105596;28;20410;-63
2022/04/26 07:19:05;;;;;;;2.35;1.00;;;;;;;;;;2099075;28;20452;-62
2022/04/26 07:20:06;;;;;;;3.53;0.90;;;;;;;;;;2097306;28;20128;-63
2022/04/26 07:21:08;;;;;;;2.13;1.27;;;;;;;;;;2097220;28;20458;-63
2022/04/26 07:22:09;;;;;;;;;;;;;;;;;;2097816;28;20052;-62
2022/04/26 07:23:11;;;;;;;2.47;1.00;;;;;;;;;;2097244;28;19959;-63
2022/04/26 07:24:12;;;;;;;2.75;1.10;;;;;;;;;;2097273;28;20059;-63
2022/04/26 07:25:13;;;;;;;1.10;0.80;;;;;;;;;;2097279;28;20048;-63
2022/04/26 07:26:14;;;;;;;2.83;0.90;;;;;;;;;;2097198;28;20568;-63
2022/04/26 07:27:16;;;;;;;1.58;0.90;;;;;;;;;;2097402;28;20135;-63
2022/04/26 07:28:19;;;;;;;1.92;1.13;;;;;;;;;;2097236;28;20182;-63
2022/04/26 07:29:19;;;;;;;1.98;1.00;;;;;;;;;;2097267;28;20185;-63
2022/04/26 07:30:21;;;;;;;3.83;1.10;;;;;;;;;;2097047;28;20106;-63
2022/04/26 07:31:22;;;;;;;2.05;1.10;;;;;;;;;;2097335;28;20135;-63
2022/04/26 07:34:20;;;;;;;2.72;1.08;;;;;;;;;;2097191;28;20537;-63
2022/04/26 07:35:04;;;;;;;3.15;1.45;;;;;;;;;;2097265;28;20049;-63
2022/04/26 07:36:06;;;;;;;1.20;0.95;;;;;;;;;;2097332;28;20127;-63
2022/04/26 07:37:07;;;;;;;;;;;;;;;;;;2097687;28;20294;-63
2022/04/26 07:38:08;;;;;;;1.20;0.82;;;;;;;;;;2097140;28;19967;-63
2022/04/26 07:39:10;;;;;;;2.78;1.38;;;;;;;;;;2097171;28;20052;-63
2022/04/26 07:40:11;;;;;;;1.58;1.00;;;;;;;;;;2097237;28;20045;-63
2022/04/26 07:41:12;;;;;;;2.27;1.10;;;;;;;;;;2097095;28;20051;-63
2022/04/26 07:42:13;;;;;;;3.20;0.98;;;;;;;;;;2097483;28;20291;-46
2022/04/26 07:43:14;;;;;;;1.50;1.10;;;;;;;;;;2097257;28;20113;-46
2022/04/26 07:44:16;;;;;;;1.98;1.25;;;;;;;;;;2097061;28;20124;-45
2022/04/26 07:45:17;;;;;;;1.55;1.05;;;;;;;;;;2097070;28;20565;-46
2022/04/26 07:46:18;;;;;;;2.17;1.25;;;;;;;;;;2097169;28;20051;-45
2022/04/26 07:47:22;;;;;;;3.33;1.17;;;;;;;;;;2097272;28;20417;-45
2022/04/26 07:48:24;;;;;;;1.75;1.30;;;;;;;;;;2097069;28;20411;-45
2022/04/26 07:49:27;;;;;;;1.77;1.17;;;;;;;;;;2097074;28;20080;-46
2022/04/26 07:50:28;;;;;;;2.33;1.27;;;;;;;;;;2097158;28;20048;-45
2022/04/26 07:51:30;;;;;;;1.50;1.10;;;;;;;;;;2097090;28;20563;-45
2022/04/26 07:52:31;;;;;;;1.90;1.20;;;;;;;;;;2097013;28;20051;-45
2022/04/26 07:53:34;;;;;;;1.67;1.10;;;;;;;;;;2097194;28;20147;-61
2022/04/26 07:54:36;;;;;;;2.15;1.17;;;;;;;;;;2096948;28;20139;-61
2022/04/26 07:55:37;;;;;;;2.50;1.20;;;;;;;;;;2097368;28;20128;-61
2022/04/26 07:56:39;;;;;;;1.58;1.30;;;;;;;;;;2098663;28;20131;-62
2022/04/26 07:57:41;;;;;;;1.50;1.10;;;;;;;;;;2098479;28;20531;-62
2022/04/26 07:58:42;;;;;;;2.03;1.20;;;;;;;;;;2098417;28;20553;-61
2022/04/26 07:59:43;;;;;;;1.65;1.27;;;;;;;;;;2098929;28;20131;-62
2022/04/26 08:00:44;;;;;;;2.60;1.20;;;;;;;;;;2098475;28;20142;-61
2022/04/26 08:01:45;;;;;;;1.35;1.08;;;;;;;;;;2098487;28;20123;-61
2022/04/26 08:02:46;;;;;;;2.45;1.23;;;;;;;;;;2098500;28;20079;-61
2022/04/26 08:03:48;;;;;;;3.40;0.88;;;;;;;;;;2098329;28;20048;-61
2022/04/26 08:04:49;;;;;;;3.38;1.08;;;;;;;;;;2098733;28;20048;-45
2022/04/26 08:05:52;;;;;;;4.63;0.93;;;;;;;;;;2098499;28;20513;-45
2022/04/26 08:06:53;;;;;;;2.90;1.02;;;;;;;;;;2098343;28;20477;-45
2022/04/26 08:07:55;;;;;;;4.38;1.05;;;;;;;;;;2098519;28;20055;-45
2022/04/26 08:08:58;;;;;;;2.50;1.20;;;;;;;;;;2098355;28;20048;-45
2022/04/26 08:09:59;;;;;;;2.17;0.93;;;;;;;;;;2098392;28;20048;-43
2022/04/26 08:11:01;;;;;;;1.90;1.20;;;;;;;;;;2098422;28;20044;-45
2022/04/26 08:12:03;;;;;;;2.55;1.30;;;;;;;;;;2098554;28;20128;-44
2022/04/26 08:13:04;;;;;;;1.52;1.00;;;;;;;;;;2098321;28;20097;-45
2022/04/26 08:14:05;;;;;;;1.05;0.90;;;;;;;;;;2098536;28;20174;-45
2022/04/26 08:15:07;;;;;;;1.48;1.00;;;;;;;;;;2098518;28;20129;-45
2022/04/26 08:16:08;;;;;;;1.80;1.02;;;;;;;;;;2098480;28;20469;-45
2022/04/26 08:17:11;;;;;;;1.25;1.00;;;;;;;;;;2098343;28;20052;-45
2022/04/26 08:18:12;;;;;;;1.60;1.20;;;;;;;;;;2098455;28;20051;-45
2022/04/26 08:19:13;;;;;;;1.15;0.88;;;;;;;;;;2098292;28;20084;-45
2022/04/26 08:20:15;;;;;;;1.77;1.10;;;;;;;;;;2098281;28;20068;-45
2022/04/26 08:21:17;;;;;;;;;;;;;;;;;;2098993;28;20076;-62
2022/04/26 08:22:18;;;;;;;2.33;1.23;;;;;;;;;;2098288;28;20007;-62
2022/04/26 08:23:19;;;;;;;2.30;1.90;;;;;;;;;;2098346;28;20071;-62
2022/04/26 08:28:24;;;;;;;2.42;1.00;;;;;;;;;;2098420;28;20052;-62
2022/04/26 08:29:25;;;;;;;2.50;1.45;;;;;;;;;;2098359;28;20131;-63
2022/04/26 08:30:26;;;;;;;2.07;1.07;;;;;;;;;;2098526;28;20052;-63
2022/04/26 08:31:28;;;;;;;2.03;1.20;;;;;;;;;;2098302;28;20110;-63
2022/04/26 08:32:37;;;;;;;2.22;1.25;;;;;;;;;;2098416;28;20044;-63
2022/04/26 08:33:38;;;;;;;1.65;1.35;;;;;;;;;;2098032;28;20040;-62
2022/04/26 08:34:39;;;;;;;1.23;0.93;;;;;;;;;;2098590;28;20127;-62
2022/04/26 08:35:41;;;;;;;1.70;1.00;;;;;;;;;;2098233;28;20105;-62
2022/04/26 08:37:02;;;;;;;1.42;1.00;;;;;;;;;;2098381;28;20788;-62
2022/04/26 08:38:03;;;;;;;2.45;1.30;;;;;;;;;;2098292;28;20540;-63
2022/04/26 08:39:04;;;;;;;2.58;1.10;;;;;;;;;;2098359;28;20048;-63
2022/04/26 08:40:07;;;;;;;3.60;1.75;;;;;;;;;;2098262;28;20124;-63
2022/04/26 08:41:09;;;;;;;2.25;1.30;;;;;;;;;;2098498;28;20257;-46
2022/04/26 08:42:10;;;;;;;2.75;1.85;;;;;;;;;;2098168;28;20125;-45
2022/04/26 08:43:11;;;;;;;2.90;1.05;;;;;;;;;;2098411;28;20143;-46
2022/04/26 08:44:12;;;;;;;2.17;1.33;;;;;;;;;;2098210;28;20056;-46
2022/04/26 08:45:14;;;;;;;1.38;1.10;;;;;;;;;;2098189;28;20397;-45
2022/04/26 08:46:15;;;;;;;;;;;;;;;;;;2098879;28;20127;-45
2022/04/26 08:51:15;;;;;;;3.85;1.17;;;;;;;;;;2098298;28;20135;-62
2022/04/26 08:52:16;;;;;;;1.13;0.70;;;;;;;;;;2098148;28;20410;-63
2022/04/26 08:53:18;;;;;;;1.20;0.90;;;;;;;;;;2098229;28;20048;-62
2022/04/26 08:54:19;;;;;;;;;;;;;;;;;;2098569;28;20050;-63
2022/04/26 08:55:21;;;;;;;1.20;0.70;;;;;;;;;;2098039;28;20038;-63
2022/04/26 08:56:22;;;;;;;1.27;0.90;;;;;;;;;;2098332;28;20072;-63
2022/04/26 08:57:23;;;;;;;1.80;1.02;;;;;;;;;;2098121;28;20528;-63
2022/04/26 08:58:27;;;;;;;1.17;0.77;;;;;;;;;;2098138;28;20707;-63
2022/04/26 08:59:28;;;;;;;1.70;1.00;;;;;;;;;;2098128;28;20536;-63
2022/04/26 09:00:29;;;;;;;1.77;1.00;;;;;;;;;;2098154;28;20075;-63
2022/04/26 09:01:31;;;;;;;2.00;1.00;;;;;;;;;;2098237;28;20132;-63
2022/04/26 09:02:32;;;;;;;1.25;0.70;;;;;;;;;;2098115;28;20040;-63
2022/04/26 09:03:34;;;;;;;1.60;1.00;;;;;;;;;;2098053;28;20110;-64
2022/04/26 09:04:35;;;;;;;1.17;0.98;;;;;;;;;;2098086;28;20052;-63
2022/04/26 09:05:36;;;;;;;1.77;1.13;;;;;;;;;;2098118;28;20375;-63
2022/04/26 09:06:39;;;;;;;1.20;0.82;;;;;;;;;;2098049;28;20419;-62
2022/04/26 09:07:47;;;;;;;3.92;1.00;;;;;;;;;;2097205;28;20048;-63
2022/04/26 09:08:49;;;;;;;2.90;1.00;;;;;;;;;;2098097;28;20135;-62
2022/04/26 09:10:01;;;;;;;1.52;1.00;;;;;;;;;;2098032;28;20131;-63
2022/04/26 09:11:03;;;;;;;2.92;1.40;;;;;;;;;;2098166;28;20083;-63
2022/04/26 09:12:09;;;;;;;1.42;0.80;;;;;;;;;;2098020;28;20055;-63
2022/04/26 09:13:15;;;;;;;1.70;0.77;;;;;;;;;;2098074;28;20478;-63
2022/04/26 09:14:30;;;;;;;1.08;0.93;;;;;;;;;;2097972;28;20131;-63
2022/04/26 09:15:36;;;;;;;1.00;0.80;;;;;;;;;;2098132;28;20059;-63
2022/04/26 09:16:37;;;;;;;2.42;0.95;;;;;;;;;;2098176;28;20127;-45
2022/04/26 09:17:38;;;;;;;3.33;1.08;;;;;;;;;;2098191;28;20047;-45
2022/04/26 09:18:39;;;;;;;1.97;1.00;;;;;;;;;;2097740;28;20491;-45
2022/04/26 09:19:44;;;;;;;3.03;1.23;;;;;;;;;;2098180;28;20174;-45
2022/04/26 09:20:45;;;;;;;1.50;0.95;;;;;;;;;;2097970;28;20123;-45
2022/04/26 09:21:53;;;;;;;3.13;1.10;;;;;;;;;;2098131;28;20053;-45
2022/04/26 09:22:57;;;;;;;2.15;1.10;;;;;;;;;;2097891;28;20550;-45
2022/04/26 09:23:59;;;;;;;1.20;0.90;;;;;;;;;;2098046;28;20131;-46
2022/04/26 09:25:03;;;;;;;1.85;0.80;;;;;;;;;;2097910;28;20143;-45
2022/04/26 09:26:08;;;;;;;1.70;0.90;;;;;;;;;;2098109;28;20412;-45
2022/04/26 09:27:15;;;;;;;1.23;0.93;;;;;;;;;;2097999;28;20128;-45
2022/04/26 09:28:23;;;;;;;1.70;1.00;;;;;;;;;;2098025;28;20059;-45
2022/04/26 09:29:24;;;;;;;1.65;0.90;;;;;;;;;;2097819;28;20044;-45
2022/04/26 09:30:28;;;;;;;1.67;0.90;;;;;;;;;;2104077;28;20134;-45
2022/04/26 09:31:30;;;;;;;2.15;1.20;;;;;;;;;;2106257;28;20051;-45
2022/04/26 09:32:43;;;;;;;2.00;0.93;;;;;;;;;;2106394;28;20047;-45
2022/04/26 09:33:47;;;;;;;3.58;1.15;;;;;;;;;;2106286;28;20439;-45
2022/04/26 09:34:48;;;;;;;2.78;1.10;;;;;;;;;;2106359;28;20131;-45
2022/04/26 09:35:58;;;;;;;1.13;0.70;;;;;;;;;;2106319;28;20515;-45
2022/04/26 09:37:04;;;;;;;1.67;0.88;;;;;;;;;;2106278;28;20689;-45
2022/04/26 09:38:05;;;;;;;1.98;0.80;;;;;;;;;;2106404;28;20044;-45
2022/04/26 09:39:08;;;;;;;1.10;0.70;;;;;;;;;;2106186;28;20490;-45
2022/04/26 09:40:11;;;;;;;1.20;0.90;;;;;;;;;;2106303;28;20428;-45
2022/04/26 09:41:13;;;;;;;2.00;1.00;;;;;;;;;;2106190;28;20048;-46
2022/04/26 09:42:28;;;;;;;1.40;0.80;;;;;;;;;;2106342;28;20135;-45
2022/04/26 09:43:29;;;;;;;2.83;1.10;;;;;;;;;;2106149;28;20448;-45
2022/04/26 09:44:31;;;;;;;1.60;0.73;;;;;;;;;;2106167;28;20568;-45
2022/04/26 09:45:32;;;;;;;1.48;1.00;;;;;;;;;;2106138;28;20354;-45
2022/04/26 09:46:54;;;;;;;0.85;0.68;;;;;;;;;;2106326;28;20047;-45
2022/04/26 09:47:56;;;;;;;1.17;0.70;;;;;;;;;;2101425;28;20172;-45
2022/04/26 09:49:04;;;;;;;2.67;0.82;;;;;;;;;;2106225;28;20052;-45
2022/04/26 09:50:06;;;;;;;2.50;0.70;;;;;;;;;;2106214;28;20135;-45
2022/04/26 09:51:08;;;;;;;1.35;0.65;;;;;;;;;;2106380;28;20147;-45
2022/04/26 09:52:13;;;;;;;1.58;1.00;;;;;;;;;;2106101;28;20140;-45
2022/04/26 09:53:14;;;;;;;1.20;0.82;;;;;;;;;;2106158;28;20062;-45
2022/04/26 09:54:15;;;;;;;2.13;0.82;;;;;;;;;;2106127;28;20052;-45
2022/04/26 09:55:17;;;;;;;1.05;0.55;;;;;;;;;;2106087;28;20456;-45
2022/04/26 09:56:22;;;;;;;1.75;1.00;;;;;;;;;;2106096;28;20420;-45
2022/04/26 09:57:24;;;;;;;1.20;1.05;;;;;;;;;;2106096;28;20047;-45
2022/04/26 09:58:39;;;;;;;2.85;0.70;;;;;;;;;;2106129;28;20072;-45
2022/04/26 09:59:43;;;;;;;3.17;0.70;;;;;;;;;;2106247;28;20076;-46
2022/04/26 10:00:44;;;;;;;0.77;0.50;;;;;;;;;;2106151;28;20127;-46